createdAt,value
2022-09-06T00:02:42.807Z,56.76
2022-09-06T00:07:46.384Z,56.62
2022-09-06T00:12:50.188Z,56.70
2022-09-06T00:17:54.592Z,56.65
2022-09-06T00:23:04.536Z,56.87
2022-09-06T00:28:09.411Z,57.06
2022-09-06T00:33:14.103Z,57.31
2022-09-06T00:38:20.435Z,57.61
2022-09-06T00:43:30.313Z,57.97
2022-09-06T00:48:34.014Z,58.14
2022-09-06T00:53:37.687Z,58.42
2022-09-06T00:58:41.714Z,59.12
2022-09-06T01:03:46.642Z,59.49
2022-09-06T01:09:06.947Z,59.89
2022-09-06T01:14:34.948Z,59.77
2022-09-06T01:20:16.015Z,59.96
2022-09-06T01:26:06.320Z,60.13
2022-09-06T01:31:25.242Z,60.30
2022-09-06T01:36:45.769Z,60.72
2022-09-06T01:41:59.315Z,60.78
2022-09-06T01:47:21.463Z,60.90
2022-09-06T01:52:44.050Z,60.73
2022-09-06T01:58:10.175Z,60.80
2022-09-06T02:03:41.376Z,60.91
2022-09-06T02:08:48.224Z,61.20
2022-09-06T02:13:58.255Z,61.90
2022-09-06T02:19:23.715Z,61.64
2022-09-06T02:24:31.092Z,61.84
2022-09-06T02:29:36.630Z,63.40
2022-09-06T02:34:41.679Z,62.60
2022-09-06T02:39:45.304Z,60.16
2022-09-06T02:44:49.597Z,59.77
2022-09-06T02:49:53.630Z,61.19
2022-09-06T02:54:57.093Z,63.79
2022-09-06T03:00:00.428Z,64.51
2022-09-06T03:05:04.105Z,63.70
2022-09-06T03:10:07.747Z,61.37
2022-09-06T03:15:12.830Z,62.16
2022-09-06T03:20:16.254Z,60.16
2022-09-06T03:25:19.683Z,62.41
2022-09-06T03:30:23.364Z,64.59
2022-09-06T03:35:30.532Z,63.44
2022-09-06T03:40:36.788Z,62.23
2022-09-06T03:45:43.439Z,63.19
2022-09-06T03:50:53.060Z,61.65
2022-09-06T03:56:01.972Z,62.84
2022-09-06T04:01:12.059Z,61.88
2022-09-06T04:06:16.729Z,61.74
2022-09-06T04:11:32.629Z,61.34
2022-09-06T04:16:58.194Z,61.05
2022-09-06T04:22:13.830Z,60.11
2022-09-06T04:27:18.763Z,59.57
2022-09-06T04:32:22.119Z,60.58
2022-09-06T04:37:25.616Z,61.41
2022-09-06T04:42:29.077Z,64.29
2022-09-06T04:47:35.871Z,63.92
2022-09-06T04:52:39.185Z,62.32
2022-09-06T04:57:46.544Z,61.46
2022-09-06T05:02:52.001Z,60.83
2022-09-06T05:07:56.153Z,60.25
2022-09-06T05:12:59.910Z,59.94
2022-09-06T05:18:12.867Z,58.45
2022-09-06T05:23:33.877Z,59.80
2022-09-06T05:28:40.140Z,60.72
2022-09-06T05:33:44.885Z,62.25
2022-09-06T05:38:48.441Z,62.06
2022-09-06T05:43:54.802Z,61.06
2022-09-06T05:49:04.973Z,59.09
2022-09-06T05:54:11.580Z,59.80
2022-09-06T05:59:15.429Z,60.09
2022-09-06T06:04:18.994Z,60.69
2022-09-06T06:09:22.362Z,60.50
2022-09-06T06:14:25.668Z,60.24
2022-09-06T06:19:29.425Z,59.35
2022-09-06T06:24:33.642Z,60.07
2022-09-06T06:29:38.600Z,59.58
2022-09-06T06:34:42.085Z,59.95
2022-09-06T06:39:45.568Z,58.77
2022-09-06T06:44:49.005Z,58.30
2022-09-06T06:49:52.447Z,58.66
2022-09-06T06:54:58.847Z,58.07
2022-09-06T07:00:07.202Z,57.79
2022-09-06T07:10:36.654Z,57.87
2022-09-06T07:15:41.091Z,58.17
2022-09-06T07:26:15.801Z,59.09
2022-09-06T07:36:45.854Z,58.97
2022-09-06T07:41:51.021Z,58.76
2022-09-06T07:46:54.603Z,59.05
2022-09-06T07:52:00.279Z,58.82
2022-09-06T07:57:03.711Z,58.68
2022-09-06T08:02:10.457Z,58.17
2022-09-06T08:07:40.460Z,58.82
2022-09-06T08:12:59.700Z,58.74
2022-09-06T08:18:11.816Z,58.62
2022-09-06T08:23:20.177Z,57.92
2022-09-06T08:28:28.998Z,57.53
2022-09-06T08:33:34.198Z,58.22
2022-09-06T08:38:42.462Z,58.34
2022-09-06T08:49:33.440Z,58.09
2022-09-06T08:55:05.206Z,57.10
2022-09-06T09:00:20.510Z,57.10
2022-09-06T09:05:33.074Z,56.77
2022-09-06T09:10:43.776Z,56.12
2022-09-06T09:15:47.254Z,54.80
2022-09-06T09:20:52.191Z,54.50
2022-09-06T09:25:59.991Z,52.43
2022-09-06T09:31:03.609Z,52.79
2022-09-06T09:36:19.985Z,52.46
2022-09-06T09:41:49.600Z,51.96
2022-09-06T09:46:53.813Z,50.24
2022-09-06T09:52:12.105Z,50.51
2022-09-06T09:57:19.094Z,50.94
2022-09-06T10:02:32.233Z,51.61
2022-09-06T10:07:43.903Z,50.46
2022-09-06T10:12:47.509Z,49.46
2022-09-06T10:17:52.017Z,50.27
2022-09-06T10:23:05.922Z,49.71
2022-09-06T10:28:15.390Z,49.51
2022-09-06T10:34:00.362Z,49.80
2022-09-06T10:39:35.907Z,49.27
2022-09-06T10:44:54.240Z,48.77
2022-09-06T10:49:59.597Z,48.51
2022-09-06T10:55:22.724Z,48.24
2022-09-06T11:01:04.584Z,48.15
2022-09-06T11:06:22.502Z,47.89
2022-09-06T11:11:41.977Z,47.02
2022-09-06T11:17:00.176Z,46.95
2022-09-06T11:22:42.436Z,45.70
2022-09-06T11:27:53.931Z,46.31
2022-09-06T11:33:16.797Z,45.92
2022-09-06T11:38:25.836Z,45.58
2022-09-06T11:44:07.709Z,46.05
2022-09-06T11:49:40.378Z,45.35
2022-09-06T11:55:25.292Z,45.31
2022-09-06T12:01:39.983Z,46.06
2022-09-06T12:07:21.765Z,45.80
2022-09-06T12:12:52.156Z,44.78
2022-09-06T12:18:22.898Z,45.27
2022-09-06T12:24:45.875Z,44.77
2022-09-06T12:30:42.436Z,44.68
2022-09-06T12:36:02.306Z,45.80
2022-09-06T12:46:52.465Z,45.25
2022-09-06T12:52:34.182Z,45.80
2022-09-06T12:58:31.839Z,44.01
2022-09-06T13:03:54.022Z,44.60
2022-09-06T13:09:40.962Z,44.61
2022-09-06T13:22:33.887Z,42.06
2022-09-06T13:28:38.558Z,42.88
2022-09-06T13:34:11.110Z,40.69
2022-09-06T13:39:34.216Z,41.64
2022-09-06T13:44:40.343Z,41.82
2022-09-06T13:49:58.734Z,42.61
2022-09-06T13:55:23.061Z,43.39
2022-09-06T14:00:35.642Z,43.49
2022-09-06T14:05:48.081Z,43.44
2022-09-06T14:10:55.188Z,42.87
2022-09-06T14:15:58.758Z,44.10
2022-09-06T14:21:02.408Z,43.88
2022-09-06T14:26:14.884Z,43.96
2022-09-06T14:31:36.110Z,42.99
2022-09-06T14:36:56.453Z,43.88
2022-09-06T14:42:05.069Z,43.84
2022-09-06T14:47:17.262Z,44.94
2022-09-06T14:52:36.344Z,44.54
2022-09-06T14:58:00.376Z,44.90
2022-09-06T15:03:31.575Z,45.13
2022-09-06T15:09:09.970Z,45.38
2022-09-06T15:14:41.687Z,45.21
2022-09-06T15:20:05.732Z,45.17
2022-09-06T15:25:35.817Z,44.74
2022-09-06T15:30:50.793Z,44.63
2022-09-06T15:36:21.007Z,45.04
2022-09-06T15:41:27.839Z,45.53
2022-09-06T15:46:45.900Z,45.16
2022-09-06T15:51:51.813Z,45.35
2022-09-06T15:57:07.243Z,45.38
2022-09-06T16:02:30.712Z,45.23
2022-09-06T16:07:43.537Z,45.09
2022-09-06T16:12:58.155Z,45.71
2022-09-06T16:18:06.451Z,45.88
2022-09-06T16:23:13.119Z,46.01
2022-09-06T16:28:21.876Z,46.39
2022-09-06T16:33:25.607Z,46.49
2022-09-06T16:38:33.570Z,47.34
2022-09-06T16:43:38.877Z,47.58
2022-09-06T16:49:07.247Z,48.28
2022-09-06T16:54:15.004Z,48.45
2022-09-06T16:59:23.551Z,48.47
2022-09-06T17:04:29.705Z,48.88
2022-09-06T17:09:45.521Z,49.13
2022-09-06T17:14:54.706Z,49.41
2022-09-06T17:19:59.403Z,51.00
2022-09-06T17:25:04.544Z,50.54
2022-09-06T17:30:08.772Z,50.83
2022-09-06T17:35:17.319Z,51.22
2022-09-06T17:40:21.985Z,51.61
2022-09-06T17:45:28.330Z,52.26
2022-09-06T17:50:35.795Z,51.98
2022-09-06T17:55:41.422Z,52.20
2022-09-06T18:00:48.363Z,52.97
2022-09-06T18:05:52.112Z,53.22
2022-09-06T18:11:24.661Z,53.20
2022-09-06T18:16:34.740Z,53.41
2022-09-06T18:21:44.841Z,53.75
2022-09-06T18:26:54.965Z,53.96
2022-09-06T18:32:04.599Z,54.30
2022-09-06T18:37:13.219Z,54.86
2022-09-06T18:42:20.421Z,54.48
2022-09-06T18:47:58.553Z,54.72
2022-09-06T18:53:20.416Z,54.94
2022-09-06T18:58:57.026Z,54.93
2022-09-06T19:04:10.675Z,54.73
2022-09-06T19:09:57.029Z,54.85
2022-09-06T19:15:32.798Z,55.06
2022-09-06T19:20:53.015Z,55.04
2022-09-06T19:26:19.947Z,55.06
2022-09-06T19:32:03.907Z,55.09
2022-09-06T19:37:45.316Z,55.31
2022-09-06T19:43:23.953Z,55.48
2022-09-06T19:48:53.699Z,55.90
2022-09-06T19:54:19.911Z,56.09
2022-09-06T20:05:24.358Z,55.71
2022-09-06T20:10:35.093Z,56.27
2022-09-06T20:15:42.116Z,57.29
2022-09-06T20:20:45.690Z,57.22
2022-09-06T20:26:13.081Z,57.49
2022-09-06T20:31:18.934Z,57.90
2022-09-06T20:36:22.528Z,58.50
2022-09-06T20:41:26.965Z,58.71
2022-09-06T20:46:32.712Z,58.71
2022-09-06T20:51:38.800Z,59.53
2022-09-06T20:56:43.572Z,59.24
2022-09-06T21:01:47.579Z,59.37
2022-09-06T21:06:51.771Z,59.94
2022-09-06T21:11:57.741Z,61.48
2022-09-06T21:17:01.229Z,61.56
2022-09-06T21:22:04.618Z,62.96
2022-09-06T21:27:08.158Z,59.68
2022-09-06T21:32:11.560Z,59.41
2022-09-06T21:37:14.930Z,60.00
2022-09-06T21:42:18.902Z,60.90
2022-09-06T21:47:22.279Z,61.05
2022-09-06T21:52:26.715Z,61.04
2022-09-06T21:57:30.042Z,61.52
2022-09-06T22:02:34.496Z,61.79
2022-09-06T22:07:38.040Z,63.41
2022-09-06T22:12:45.905Z,64.83
2022-09-06T22:17:49.864Z,62.76
2022-09-06T22:22:53.139Z,61.89
2022-09-06T22:27:56.622Z,60.20
2022-09-06T22:33:00.191Z,59.69
2022-09-06T22:38:03.739Z,60.47
2022-09-06T22:43:12.900Z,61.69
2022-09-06T22:48:24.988Z,62.95
2022-09-06T22:53:29.575Z,62.61
2022-09-06T22:58:38.070Z,63.13
2022-09-06T23:03:42.759Z,62.77
2022-09-06T23:08:47.247Z,61.25
2022-09-06T23:13:55.747Z,59.33
2022-09-06T23:19:05.982Z,59.81
2022-09-06T23:24:11.548Z,60.66
2022-09-06T23:29:15.162Z,62.76
2022-09-06T23:34:18.688Z,62.52
2022-09-06T23:39:22.515Z,61.69
2022-09-06T23:44:25.992Z,61.42
2022-09-06T23:49:29.899Z,61.01
2022-09-06T23:54:43.424Z,62.26
2022-09-06T23:59:49.803Z,60.12
